sensor_id;sensor_type;location;lat;lon;timestamp;pressure;altitude;pressure_sealevel;temperature;humidity
46944;BME280;32678;43.852;25.952;2023-05-23T00:01:31;100855.34;;;21.95;59.10
46944;BME280;32678;43.852;25.952;2023-05-23T00:06:29;100870.28;;;21.97;59.63
46944;BME280;32678;43.852;25.952;2023-05-23T00:11:25;100863.34;;;22.06;59.51
46944;BME280;32678;43.852;25.952;2023-05-23T00:16:24;100865.16;;;21.94;59.02
46944;BME280;32678;43.852;25.952;2023-05-23T00:21:20;100869.44;;;21.97;58.49
46944;BME280;32678;43.852;25.952;2023-05-23T00:26:18;100869.25;;;21.87;58.33
46944;BME280;32678;43.852;25.952;2023-05-23T00:31:15;100868.09;;;22.02;57.20
46944;BME280;32678;43.852;25.952;2023-05-23T00:36:13;100887.03;;;22.22;56.17
46944;BME280;32678;43.852;25.952;2023-05-23T00:41:10;100883.41;;;22.23;55.97
46944;BME280;32678;43.852;25.952;2023-05-23T00:46:08;100879.84;;;22.00;56.33
46944;BME280;32678;43.852;25.952;2023-05-23T00:51:06;100883.56;;;21.86;57.02
46944;BME280;32678;43.852;25.952;2023-05-23T00:56:05;100883.41;;;21.20;59.38
46944;BME280;32678;43.852;25.952;2023-05-23T01:01:02;100873.44;;;21.56;58.83
46944;BME280;32678;43.852;25.952;2023-05-23T01:05:59;100865.72;;;21.76;58.48
46944;BME280;32678;43.852;25.952;2023-05-23T01:10:57;100866.88;;;21.95;57.88
46944;BME280;32678;43.852;25.952;2023-05-23T01:15:57;100876.75;;;21.25;60.64
46944;BME280;32678;43.852;25.952;2023-05-23T01:21:00;100872.22;;;20.91;61.89
46944;BME280;32678;43.852;25.952;2023-05-23T01:26:12;100874.22;;;20.63;62.89
46944;BME280;32678;43.852;25.952;2023-05-23T01:31:14;100853.44;;;20.19;63.19
46944;BME280;32678;43.852;25.952;2023-05-23T01:36:12;100864.16;;;20.43;62.41
46944;BME280;32678;43.852;25.952;2023-05-23T01:41:12;100866.66;;;19.96;63.52
46944;BME280;32678;43.852;25.952;2023-05-23T01:46:09;100873.47;;;19.49;65.37
46944;BME280;32678;43.852;25.952;2023-05-23T01:51:07;100875.72;;;19.80;64.29
46944;BME280;32678;43.852;25.952;2023-05-23T01:56:03;100879.22;;;20.06;63.49
46944;BME280;32678;43.852;25.952;2023-05-23T02:01:00;100887.19;;;20.19;62.84
46944;BME280;32678;43.852;25.952;2023-05-23T02:05:59;100875.38;;;19.85;63.47
46944;BME280;32678;43.852;25.952;2023-05-23T02:10:56;100886.47;;;19.92;63.17
46944;BME280;32678;43.852;25.952;2023-05-23T02:15:53;100885.50;;;20.05;62.56
46944;BME280;32678;43.852;25.952;2023-05-23T02:20:50;100886.88;;;19.48;64.25
46944;BME280;32678;43.852;25.952;2023-05-23T02:25:47;100883.34;;;19.60;63.81
46944;BME280;32678;43.852;25.952;2023-05-23T02:30:44;100884.22;;;19.60;63.40
46944;BME280;32678;43.852;25.952;2023-05-23T02:35:41;100880.06;;;19.94;62.71
46944;BME280;32678;43.852;25.952;2023-05-23T02:40:38;100884.31;;;20.22;62.18
46944;BME280;32678;43.852;25.952;2023-05-23T02:45:35;100884.41;;;20.33;60.91
46944;BME280;32678;43.852;25.952;2023-05-23T02:50:35;100886.13;;;20.34;61.11
46944;BME280;32678;43.852;25.952;2023-05-23T02:55:31;100891.22;;;20.50;59.79
46944;BME280;32678;43.852;25.952;2023-05-23T03:00:28;100897.09;;;19.66;61.64
46944;BME280;32678;43.852;25.952;2023-05-23T03:05:26;100894.66;;;19.36;62.41
46944;BME280;32678;43.852;25.952;2023-05-23T03:10:23;100895.34;;;18.86;64.64
46944;BME280;32678;43.852;25.952;2023-05-23T03:15:21;100896.72;;;18.79;64.35
46944;BME280;32678;43.852;25.952;2023-05-23T03:20:18;100898.66;;;17.78;68.21
46944;BME280;32678;43.852;25.952;2023-05-23T03:25:16;100911.06;;;17.48;69.73
46944;BME280;32678;43.852;25.952;2023-05-23T03:30:14;100909.72;;;17.85;69.74
46944;BME280;32678;43.852;25.952;2023-05-23T03:35:11;100915.25;;;18.10;67.86
46944;BME280;32678;43.852;25.952;2023-05-23T03:40:08;100921.78;;;18.18;67.71
46944;BME280;32678;43.852;25.952;2023-05-23T03:45:05;100925.28;;;17.77;69.30
46944;BME280;32678;43.852;25.952;2023-05-23T03:50:03;100932.34;;;17.46;72.23
46944;BME280;32678;43.852;25.952;2023-05-23T03:55:02;100934.31;;;16.81;76.03
46944;BME280;32678;43.852;25.952;2023-05-23T03:59:58;100938.34;;;16.88;76.49
46944;BME280;32678;43.852;25.952;2023-05-23T04:04:55;100941.66;;;17.53;75.18
46944;BME280;32678;43.852;25.952;2023-05-23T04:09:53;100942.22;;;17.28;75.05
46944;BME280;32678;43.852;25.952;2023-05-23T04:14:50;100947.56;;;17.13;77.27
46944;BME280;32678;43.852;25.952;2023-05-23T04:19:47;100950.25;;;17.43;76.30
46944;BME280;32678;43.852;25.952;2023-05-23T04:24:44;100952.66;;;17.77;74.00
46944;BME280;32678;43.852;25.952;2023-05-23T04:29:41;100953.25;;;17.96;74.26
46944;BME280;32678;43.852;25.952;2023-05-23T04:34:39;100960.91;;;17.87;74.63
46944;BME280;32678;43.852;25.952;2023-05-23T04:39:36;100957.78;;;18.08;74.68
46944;BME280;32678;43.852;25.952;2023-05-23T04:45:03;100966.41;;;17.84;76.07
46944;BME280;32678;43.852;25.952;2023-05-23T04:50:20;100962.56;;;18.17;76.19
46944;BME280;32678;43.852;25.952;2023-05-23T04:55:17;100971.97;;;18.37;73.86
46944;BME280;32678;43.852;25.952;2023-05-23T05:00:16;100961.22;;;18.25;73.43
46944;BME280;32678;43.852;25.952;2023-05-23T05:05:14;100973.06;;;18.05;73.95
46944;BME280;32678;43.852;25.952;2023-05-23T05:10:11;100959.44;;;18.11;74.36
46944;BME280;32678;43.852;25.952;2023-05-23T05:15:12;100960.16;;;17.99;75.38
46944;BME280;32678;43.852;25.952;2023-05-23T05:20:11;100956.47;;;17.87;76.08
46944;BME280;32678;43.852;25.952;2023-05-23T05:25:09;100951.25;;;18.00;76.03
46944;BME280;32678;43.852;25.952;2023-05-23T05:30:07;100957.06;;;18.21;75.54
46944;BME280;32678;43.852;25.952;2023-05-23T05:35:28;100936.28;;;17.99;76.31
46944;BME280;32678;43.852;25.952;2023-05-23T05:40:25;100961.19;;;17.82;77.59
46944;BME280;32678;43.852;25.952;2023-05-23T05:45:22;100963.19;;;17.93;78.69
46944;BME280;32678;43.852;25.952;2023-05-23T05:50:19;100948.50;;;18.72;76.20
46944;BME280;32678;43.852;25.952;2023-05-23T05:55:17;100953.28;;;19.08;73.11
46944;BME280;32678;43.852;25.952;2023-05-23T06:00:19;100957.25;;;19.15;73.14
46944;BME280;32678;43.852;25.952;2023-05-23T06:05:24;100958.19;;;19.14;72.42
46944;BME280;32678;43.852;25.952;2023-05-23T06:10:22;100963.22;;;19.45;70.77
46944;BME280;32678;43.852;25.952;2023-05-23T06:15:20;100973.53;;;19.77;69.53
46944;BME280;32678;43.852;25.952;2023-05-23T06:20:17;100978.59;;;20.32;67.98
46944;BME280;32678;43.852;25.952;2023-05-23T06:25:15;100973.44;;;20.67;67.02
46944;BME280;32678;43.852;25.952;2023-05-23T06:30:16;100971.16;;;20.86;65.25
46944;BME280;32678;43.852;25.952;2023-05-23T06:35:14;100970.88;;;21.02;63.33
46944;BME280;32678;43.852;25.952;2023-05-23T06:40:14;100962.38;;;20.97;63.03
46944;BME280;32678;43.852;25.952;2023-05-23T06:45:11;100944.28;;;20.89;63.14
46944;BME280;32678;43.852;25.952;2023-05-23T06:50:13;100969.19;;;21.13;62.83
46944;BME280;32678;43.852;25.952;2023-05-23T06:55:10;100948.94;;;21.35;62.03
46944;BME280;32678;43.852;25.952;2023-05-23T07:00:11;100952.22;;;21.38;61.32
46944;BME280;32678;43.852;25.952;2023-05-23T07:05:27;100947.72;;;21.39;61.23
46944;BME280;32678;43.852;25.952;2023-05-23T07:10:26;100944.41;;;21.59;60.40
46944;BME280;32678;43.852;25.952;2023-05-23T07:15:34;100948.00;;;21.82;58.66
46944;BME280;32678;43.852;25.952;2023-05-23T07:20:40;100936.50;;;21.92;57.56
46944;BME280;32678;43.852;25.952;2023-05-23T07:25:44;100938.00;;;22.19;57.57
46944;BME280;32678;43.852;25.952;2023-05-23T07:31:07;100946.25;;;22.16;58.07
46944;BME280;32678;43.852;25.952;2023-05-23T07:36:07;100935.34;;;22.30;57.96
46944;BME280;32678;43.852;25.952;2023-05-23T07:41:04;100937.06;;;22.42;58.61
46944;BME280;32678;43.852;25.952;2023-05-23T07:46:08;100931.22;;;22.37;57.32
46944;BME280;32678;43.852;25.952;2023-05-23T07:51:07;100934.25;;;22.66;56.71
46944;BME280;32678;43.852;25.952;2023-05-23T07:56:04;100921.09;;;22.63;56.14
46944;BME280;32678;43.852;25.952;2023-05-23T08:01:05;100922.84;;;22.75;55.63
46944;BME280;32678;43.852;25.952;2023-05-23T08:06:22;100924.75;;;22.95;54.09
46944;BME280;32678;43.852;25.952;2023-05-23T08:11:22;100918.22;;;23.20;53.97
46944;BME280;32678;43.852;25.952;2023-05-23T08:16:22;100908.66;;;23.38;53.52
46944;BME280;32678;43.852;25.952;2023-05-23T08:21:19;100913.13;;;23.49;53.43
46944;BME280;32678;43.852;25.952;2023-05-23T08:26:18;100904.06;;;23.61;52.82
46944;BME280;32678;43.852;25.952;2023-05-23T08:31:16;100902.97;;;23.84;52.59
46944;BME280;32678;43.852;25.952;2023-05-23T08:36:13;100896.31;;;23.79;51.23
46944;BME280;32678;43.852;25.952;2023-05-23T08:41:15;100888.16;;;23.90;51.17
46944;BME280;32678;43.852;25.952;2023-05-23T08:46:16;100886.53;;;23.98;51.64
46944;BME280;32678;43.852;25.952;2023-05-23T08:51:13;100880.50;;;24.06;50.41
46944;BME280;32678;43.852;25.952;2023-05-23T08:56:10;100884.84;;;23.97;50.56
46944;BME280;32678;43.852;25.952;2023-05-23T09:01:12;100878.22;;;24.22;50.91
46944;BME280;32678;43.852;25.952;2023-05-23T09:06:10;100872.06;;;24.31;50.97
46944;BME280;32678;43.852;25.952;2023-05-23T09:11:11;100882.50;;;24.04;49.33
46944;BME280;32678;43.852;25.952;2023-05-23T09:16:09;100862.94;;;24.13;49.44
46944;BME280;32678;43.852;25.952;2023-05-23T09:21:16;100874.06;;;24.08;49.43
46944;BME280;32678;43.852;25.952;2023-05-23T09:26:28;100863.19;;;24.40;48.95
46944;BME280;32678;43.852;25.952;2023-05-23T09:31:25;100868.41;;;24.32;48.37
46944;BME280;32678;43.852;25.952;2023-05-23T09:36:26;100856.44;;;24.46;46.78
46944;BME280;32678;43.852;25.952;2023-05-23T09:41:24;100851.16;;;24.25;47.00
46944;BME280;32678;43.852;25.952;2023-05-23T09:46:21;100856.78;;;24.22;46.66
46944;BME280;32678;43.852;25.952;2023-05-23T09:51:28;100858.88;;;23.88;47.96
46944;BME280;32678;43.852;25.952;2023-05-23T09:56:28;100851.31;;;23.72;48.37
46944;BME280;32678;43.852;25.952;2023-05-23T10:01:25;100849.81;;;23.80;48.32
46944;BME280;32678;43.852;25.952;2023-05-23T10:06:24;100849.72;;;24.21;47.29
46944;BME280;32678;43.852;25.952;2023-05-23T10:16:52;100842.59;;;25.00;45.68
46944;BME280;32678;43.852;25.952;2023-05-23T10:21:54;100838.63;;;25.23;44.91
46944;BME280;32678;43.852;25.952;2023-05-23T10:26:54;100840.75;;;24.91;44.44
46944;BME280;32678;43.852;25.952;2023-05-23T10:31:52;100827.13;;;24.64;44.15
46944;BME280;32678;43.852;25.952;2023-05-23T10:36:56;100825.97;;;24.37;43.88
46944;BME280;32678;43.852;25.952;2023-05-23T10:41:55;100825.34;;;24.34;43.22
46944;BME280;32678;43.852;25.952;2023-05-23T10:46:55;100821.06;;;24.52;42.47
46944;BME280;32678;43.852;25.952;2023-05-23T10:51:54;100821.75;;;24.64;42.88
46944;BME280;32678;43.852;25.952;2023-05-23T10:57:01;100817.97;;;24.66;41.07
46944;BME280;32678;43.852;25.952;2023-05-23T11:01:59;100816.63;;;24.32;41.90
46944;BME280;32678;43.852;25.952;2023-05-23T11:06:57;100816.53;;;24.52;41.76
46944;BME280;32678;43.852;25.952;2023-05-23T11:12:00;100793.53;;;24.50;40.91
46944;BME280;32678;43.852;25.952;2023-05-23T11:16:59;100808.09;;;24.67;41.01
46944;BME280;32678;43.852;25.952;2023-05-23T11:21:57;100802.44;;;24.60;40.88
46944;BME280;32678;43.852;25.952;2023-05-23T11:26:56;100799.09;;;24.96;40.51
46944;BME280;32678;43.852;25.952;2023-05-23T11:31:57;100779.59;;;24.75;40.00
46944;BME280;32678;43.852;25.952;2023-05-23T11:36:55;100798.25;;;25.06;39.43
46944;BME280;32678;43.852;25.952;2023-05-23T11:42:00;100786.06;;;25.40;39.13
46944;BME280;32678;43.852;25.952;2023-05-23T11:47:00;100782.03;;;25.73;38.89
46944;BME280;32678;43.852;25.952;2023-05-23T11:51:58;100774.41;;;25.68;38.11
46944;BME280;32678;43.852;25.952;2023-05-23T11:56:56;100772.44;;;25.70;37.89
46944;BME280;32678;43.852;25.952;2023-05-23T12:01:53;100759.06;;;25.88;38.72
46944;BME280;32678;43.852;25.952;2023-05-23T12:06:50;100760.91;;;25.87;36.14
46944;BME280;32678;43.852;25.952;2023-05-23T12:11:48;100753.84;;;25.40;35.83
46944;BME280;32678;43.852;25.952;2023-05-23T12:16:45;100747.66;;;25.76;35.86
46944;BME280;32678;43.852;25.952;2023-05-23T12:21:43;100730.75;;;25.94;35.03
46944;BME280;32678;43.852;25.952;2023-05-23T12:26:51;100743.28;;;25.29;37.00
46944;BME280;32678;43.852;25.952;2023-05-23T12:31:48;100738.63;;;25.31;37.54
46944;BME280;32678;43.852;25.952;2023-05-23T12:36:46;100726.47;;;25.17;37.38
46944;BME280;32678;43.852;25.952;2023-05-23T12:41:48;100726.31;;;25.28;36.81
46944;BME280;32678;43.852;25.952;2023-05-23T12:46:46;100732.13;;;25.24;36.83
46944;BME280;32678;43.852;25.952;2023-05-23T12:52:07;100727.50;;;25.16;35.75
46944;BME280;32678;43.852;25.952;2023-05-23T12:57:04;100727.59;;;25.24;35.56
46944;BME280;32678;43.852;25.952;2023-05-23T13:02:05;100709.38;;;25.28;35.22
46944;BME280;32678;43.852;25.952;2023-05-23T13:07:07;100722.13;;;25.63;34.71
46944;BME280;32678;43.852;25.952;2023-05-23T13:12:04;100716.34;;;25.58;35.74
46944;BME280;32678;43.852;25.952;2023-05-23T13:17:01;100720.31;;;25.54;34.69
46944;BME280;32678;43.852;25.952;2023-05-23T13:22:10;100719.44;;;25.63;34.63
46944;BME280;32678;43.852;25.952;2023-05-23T13:27:10;100713.41;;;25.61;34.23
46944;BME280;32678;43.852;25.952;2023-05-23T13:32:07;100713.25;;;25.90;32.18
46944;BME280;32678;43.852;25.952;2023-05-23T13:37:04;100716.91;;;25.61;34.43
46944;BME280;32678;43.852;25.952;2023-05-23T13:42:02;100712.72;;;25.76;34.08
46944;BME280;32678;43.852;25.952;2023-05-23T13:47:08;100716.06;;;25.88;33.91
46944;BME280;32678;43.852;25.952;2023-05-23T13:52:08;100713.78;;;25.93;33.77
46944;BME280;32678;43.852;25.952;2023-05-23T13:57:14;100713.41;;;25.88;32.96
46944;BME280;32678;43.852;25.952;2023-05-23T14:02:11;100711.56;;;26.06;33.02
46944;BME280;32678;43.852;25.952;2023-05-23T14:07:10;100707.28;;;26.41;32.60
46944;BME280;32678;43.852;25.952;2023-05-23T14:12:08;100708.72;;;25.63;33.67
46944;BME280;32678;43.852;25.952;2023-05-23T14:17:04;100707.88;;;25.53;34.59
46944;BME280;32678;43.852;25.952;2023-05-23T14:22:02;100709.03;;;25.60;33.11
46944;BME280;32678;43.852;25.952;2023-05-23T14:26:59;100706.13;;;25.71;32.67
46944;BME280;32678;43.852;25.952;2023-05-23T14:31:58;100707.03;;;25.89;32.34
46944;BME280;32678;43.852;25.952;2023-05-23T14:36:55;100699.38;;;25.94;32.27
46944;BME280;32678;43.852;25.952;2023-05-23T14:41:52;100692.06;;;26.32;32.75
46944;BME280;32678;43.852;25.952;2023-05-23T14:46:50;100698.97;;;26.52;32.11
46944;BME280;32678;43.852;25.952;2023-05-23T14:51:48;100693.50;;;26.26;32.76
46944;BME280;32678;43.852;25.952;2023-05-23T14:56:47;100687.00;;;26.01;33.79
46944;BME280;32678;43.852;25.952;2023-05-23T15:01:48;100690.06;;;25.88;33.42
46944;BME280;32678;43.852;25.952;2023-05-23T15:06:45;100692.03;;;25.86;33.47
46944;BME280;32678;43.852;25.952;2023-05-23T15:11:42;100681.25;;;25.96;33.56
46944;BME280;32678;43.852;25.952;2023-05-23T15:16:40;100687.13;;;26.09;33.93
46944;BME280;32678;43.852;25.952;2023-05-23T15:21:39;100685.34;;;25.73;34.87
46944;BME280;32678;43.852;25.952;2023-05-23T15:26:47;100679.38;;;25.79;34.64
46944;BME280;32678;43.852;25.952;2023-05-23T15:31:45;100680.81;;;25.73;35.62
46944;BME280;32678;43.852;25.952;2023-05-23T15:36:42;100674.47;;;25.92;35.34
46944;BME280;32678;43.852;25.952;2023-05-23T15:41:43;100668.34;;;25.55;35.84
46944;BME280;32678;43.852;25.952;2023-05-23T15:46:43;100676.78;;;25.60;36.43
46944;BME280;32678;43.852;25.952;2023-05-23T15:51:40;100692.06;;;25.50;38.56
46944;BME280;32678;43.852;25.952;2023-05-23T15:56:37;100691.69;;;25.35;39.73
46944;BME280;32678;43.852;25.952;2023-05-23T16:01:33;100696.75;;;25.38;40.82
46944;BME280;32678;43.852;25.952;2023-05-23T16:06:31;100705.34;;;25.05;42.83
46944;BME280;32678;43.852;25.952;2023-05-23T16:11:30;100709.81;;;25.23;41.46
46944;BME280;32678;43.852;25.952;2023-05-23T16:16:26;100708.03;;;24.85;41.58
46944;BME280;32678;43.852;25.952;2023-05-23T16:21:23;100705.25;;;24.58;42.35
46944;BME280;32678;43.852;25.952;2023-05-23T16:26:23;100713.13;;;24.40;43.50
46944;BME280;32678;43.852;25.952;2023-05-23T16:31:24;100718.47;;;24.31;43.87
46944;BME280;32678;43.852;25.952;2023-05-23T16:36:21;100725.81;;;24.38;43.96
46944;BME280;32678;43.852;25.952;2023-05-23T16:41:18;100722.84;;;24.32;44.43
46944;BME280;32678;43.852;25.952;2023-05-23T16:46:16;100724.25;;;24.36;44.44
46944;BME280;32678;43.852;25.952;2023-05-23T16:51:16;100722.72;;;24.24;45.01
46944;BME280;32678;43.852;25.952;2023-05-23T16:56:13;100727.06;;;24.53;44.33
46944;BME280;32678;43.852;25.952;2023-05-23T17:01:10;100717.34;;;24.24;44.68
46944;BME280;32678;43.852;25.952;2023-05-23T17:06:10;100721.13;;;24.21;44.74
46944;BME280;32678;43.852;25.952;2023-05-23T17:11:08;100724.13;;;24.47;44.20
46944;BME280;32678;43.852;25.952;2023-05-23T17:16:05;100712.56;;;24.37;44.62
46944;BME280;32678;43.852;25.952;2023-05-23T17:21:02;100724.38;;;24.44;44.59
46944;BME280;32678;43.852;25.952;2023-05-23T17:26:00;100722.44;;;24.36;44.28
46944;BME280;32678;43.852;25.952;2023-05-23T17:30:57;100720.03;;;24.43;44.10
46944;BME280;32678;43.852;25.952;2023-05-23T17:35:54;100725.41;;;24.52;43.83
46944;BME280;32678;43.852;25.952;2023-05-23T17:40:51;100727.91;;;24.44;44.39
46944;BME280;32678;43.852;25.952;2023-05-23T17:45:49;100732.44;;;24.44;44.63
46944;BME280;32678;43.852;25.952;2023-05-23T17:50:46;100736.97;;;24.53;44.38
46944;BME280;32678;43.852;25.952;2023-05-23T17:55:42;100738.38;;;24.67;44.44
46944;BME280;32678;43.852;25.952;2023-05-23T18:00:40;100753.19;;;24.61;44.78
46944;BME280;32678;43.852;25.952;2023-05-23T18:05:37;100749.53;;;24.52;44.86
46944;BME280;32678;43.852;25.952;2023-05-23T18:10:34;100770.56;;;24.57;45.08
46944;BME280;32678;43.852;25.952;2023-05-23T18:15:31;100758.69;;;24.50;45.12
46944;BME280;32678;43.852;25.952;2023-05-23T18:20:28;100787.19;;;24.70;44.83
46944;BME280;32678;43.852;25.952;2023-05-23T18:25:25;100795.53;;;24.57;45.46
46944;BME280;32678;43.852;25.952;2023-05-23T18:30:23;100802.13;;;24.63;45.52
46944;BME280;32678;43.852;25.952;2023-05-23T18:35:20;100786.91;;;24.54;45.58
46944;BME280;32678;43.852;25.952;2023-05-23T18:40:17;100812.84;;;24.53;46.12
46944;BME280;32678;43.852;25.952;2023-05-23T18:45:20;100818.06;;;24.45;46.47
46944;BME280;32678;43.852;25.952;2023-05-23T18:50:17;100829.59;;;24.27;47.19
46944;BME280;32678;43.852;25.952;2023-05-23T18:55:15;100831.03;;;24.40;46.86
46944;BME280;32678;43.852;25.952;2023-05-23T19:00:12;100834.81;;;24.28;47.27
46944;BME280;32678;43.852;25.952;2023-05-23T19:05:10;100837.25;;;24.10;47.89
46944;BME280;32678;43.852;25.952;2023-05-23T19:10:07;100830.25;;;24.19;47.75
46944;BME280;32678;43.852;25.952;2023-05-23T19:15:05;100844.13;;;24.34;47.42
46944;BME280;32678;43.852;25.952;2023-05-23T19:20:05;100845.53;;;24.28;47.73
46944;BME280;32678;43.852;25.952;2023-05-23T19:25:04;100862.88;;;24.34;47.64
46944;BME280;32678;43.852;25.952;2023-05-23T19:30:03;100859.50;;;24.32;51.47
46944;BME280;32678;43.852;25.952;2023-05-23T19:34:59;100858.84;;;24.49;53.07
46944;BME280;32678;43.852;25.952;2023-05-23T19:39:56;100862.22;;;24.41;53.75
46944;BME280;32678;43.852;25.952;2023-05-23T19:44:54;100863.63;;;24.45;53.37
46944;BME280;32678;43.852;25.952;2023-05-23T19:49:51;100864.13;;;24.30;52.86
46944;BME280;32678;43.852;25.952;2023-05-23T19:54:48;100872.50;;;24.36;52.07
46944;BME280;32678;43.852;25.952;2023-05-23T19:59:45;100867.38;;;24.24;51.41
46944;BME280;32678;43.852;25.952;2023-05-23T20:04:43;100867.06;;;24.17;52.00
46944;BME280;32678;43.852;25.952;2023-05-23T20:09:39;100864.13;;;24.30;53.42
46944;BME280;32678;43.852;25.952;2023-05-23T20:14:36;100866.66;;;24.22;53.44
46944;BME280;32678;43.852;25.952;2023-05-23T20:19:33;100870.66;;;24.37;52.58
46944;BME280;32678;43.852;25.952;2023-05-23T20:24:31;100877.41;;;24.31;51.71
46944;BME280;32678;43.852;25.952;2023-05-23T20:29:28;100873.47;;;24.35;51.99
46944;BME280;32678;43.852;25.952;2023-05-23T20:34:25;100884.69;;;24.20;52.96
46944;BME280;32678;43.852;25.952;2023-05-23T20:39:22;100879.00;;;24.13;53.32
46944;BME280;32678;43.852;25.952;2023-05-23T20:44:19;100878.28;;;24.11;51.50
46944;BME280;32678;43.852;25.952;2023-05-23T20:49:16;100881.31;;;23.97;51.92
46944;BME280;32678;43.852;25.952;2023-05-23T20:54:15;100883.53;;;23.92;51.68
46944;BME280;32678;43.852;25.952;2023-05-23T20:59:12;100879.44;;;23.88;50.99
46944;BME280;32678;43.852;25.952;2023-05-23T21:04:09;100891.19;;;24.17;50.20
46944;BME280;32678;43.852;25.952;2023-05-23T21:09:06;100885.88;;;24.36;49.34
46944;BME280;32678;43.852;25.952;2023-05-23T21:14:04;100872.47;;;24.27;48.94
46944;BME280;32678;43.852;25.952;2023-05-23T21:19:01;100890.56;;;24.13;49.42
46944;BME280;32678;43.852;25.952;2023-05-23T21:23:59;100897.13;;;24.30;49.36
46944;BME280;32678;43.852;25.952;2023-05-23T21:28:55;100909.69;;;24.30;51.61
46944;BME280;32678;43.852;25.952;2023-05-23T21:33:52;100907.56;;;24.24;52.83
46944;BME280;32678;43.852;25.952;2023-05-23T21:38:48;100907.16;;;24.28;53.19
46944;BME280;32678;43.852;25.952;2023-05-23T21:43:46;100914.44;;;24.16;53.59
46944;BME280;32678;43.852;25.952;2023-05-23T21:48:42;100919.09;;;24.24;53.38
46944;BME280;32678;43.852;25.952;2023-05-23T21:53:41;100917.03;;;24.28;53.52
46944;BME280;32678;43.852;25.952;2023-05-23T21:58:41;100916.19;;;24.27;53.45
46944;BME280;32678;43.852;25.952;2023-05-23T22:03:38;100911.75;;;24.16;53.23
46944;BME280;32678;43.852;25.952;2023-05-23T22:08:35;100915.56;;;23.93;52.20
46944;BME280;32678;43.852;25.952;2023-05-23T22:13:31;100908.50;;;23.71;52.45
46944;BME280;32678;43.852;25.952;2023-05-23T22:18:28;100899.84;;;23.79;52.86
46944;BME280;32678;43.852;25.952;2023-05-23T22:23:39;100890.66;;;24.02;52.74
46944;BME280;32678;43.852;25.952;2023-05-23T22:28:36;100890.38;;;24.26;51.09
46944;BME280;32678;43.852;25.952;2023-05-23T22:33:33;100888.03;;;24.42;49.46
46944;BME280;32678;43.852;25.952;2023-05-23T22:38:29;100880.66;;;24.35;49.19
46944;BME280;32678;43.852;25.952;2023-05-23T22:43:28;100876.84;;;24.07;49.36
46944;BME280;32678;43.852;25.952;2023-05-23T22:48:24;100873.69;;;23.92;51.38
46944;BME280;32678;43.852;25.952;2023-05-23T22:53:21;100871.00;;;23.92;53.28
46944;BME280;32678;43.852;25.952;2023-05-23T22:58:18;100862.94;;;24.13;53.15
46944;BME280;32678;43.852;25.952;2023-05-23T23:03:15;100866.88;;;24.09;53.80
46944;BME280;32678;43.852;25.952;2023-05-23T23:08:12;100865.66;;;23.92;54.80
46944;BME280;32678;43.852;25.952;2023-05-23T23:13:11;100854.84;;;24.03;54.76
46944;BME280;32678;43.852;25.952;2023-05-23T23:18:08;100859.75;;;23.98;54.90
46944;BME280;32678;43.852;25.952;2023-05-23T23:23:09;100855.59;;;24.15;54.38
46944;BME280;32678;43.852;25.952;2023-05-23T23:28:06;100859.06;;;24.27;53.50
46944;BME280;32678;43.852;25.952;2023-05-23T23:33:02;100861.44;;;23.69;54.90
46944;BME280;32678;43.852;25.952;2023-05-23T23:37:59;100859.69;;;23.58;55.73
46944;BME280;32678;43.852;25.952;2023-05-23T23:42:56;100855.72;;;23.42;56.02
46944;BME280;32678;43.852;25.952;2023-05-23T23:47:53;100842.78;;;23.58;55.78
46944;BME280;32678;43.852;25.952;2023-05-23T23:52:50;100838.78;;;23.73;55.15
46944;BME280;32678;43.852;25.952;2023-05-23T23:57:46;100833.69;;;23.70;55.22
